Time;durP1;ratioP1;P1;durP2;ratioP2;P2;SDS_P1;SDS_P2;PMS_P1;PMS_P2;Temp;Humidity;BMP_temperature;BMP_pressure;BME280_temperature;BME280_humidity;BME280_pressure;Samples;Min_cycle;Max_cycle;Signal;HPM_P1;HPM_P2
2023/07/27 00:00:15;;;;;;;12.70;7.60;;;;;;;28.97;50.23;98750.45;108128;1254;59678;-70
2023/07/27 00:02:42;;;;;;;13.00;9.60;;;;;;;28.87;50.52;98752.98;108101;1254;61672;-70
2023/07/27 00:05:09;;;;;;;11.00;7.80;;;;;;;29.07;49.84;98742.71;108156;1254;60060;-70
2023/07/27 00:07:35;;;;;;;12.70;7.80;;;;;;;29.10;49.86;98739.95;108145;1254;72803;-69
2023/07/27 00:10:03;;;;;;;15.50;9.00;;;;;;;29.25;49.76;98740.58;108016;1254;70932;-68
2023/07/27 00:12:30;;;;;;;13.60;8.40;;;;;;;29.39;49.21;98726.61;108128;1253;72725;-69
2023/07/27 00:14:56;;;;;;;13.20;8.20;;;;;;;28.64;50.49;98720.70;108157;1254;61804;-69
2023/07/27 00:17:23;;;;;;;17.90;7.90;;;;;;;28.32;51.27;98715.46;108170;1255;60120;-69
2023/07/27 00:19:50;;;;;;;11.80;8.40;;;;;;;28.97;49.83;98716.69;108123;1253;73385;-71
2023/07/27 00:22:16;;;;;;;19.90;8.80;;;;;;;29.19;49.06;98722.06;108165;1254;59522;-71
2023/07/27 00:24:42;;;;;;;15.60;8.90;;;;;;;28.96;49.36;98722.43;108147;1253;60398;-70
2023/07/27 00:27:09;;;;;;;16.10;9.90;;;;;;;28.14;51.16;98720.17;108232;1255;59631;-70
2023/07/27 00:29:36;;;;;;;16.60;10.00;;;;;;;27.83;52.16;98724.27;108260;1254;59164;-71
2023/07/27 00:32:02;;;;;;;12.10;9.00;;;;;;;27.83;52.34;98722.45;108303;1255;59519;-71
2023/07/27 00:34:29;;;;;;;14.60;9.90;;;;;;;28.58;50.63;98722.98;108303;1254;70228;-70
2023/07/27 00:36:56;;;;;;;13.00;9.40;;;;;;;28.78;50.22;98718.23;108249;1252;59073;-69
2023/07/27 00:39:22;;;;;;;14.10;9.80;;;;;;;28.76;50.15;98714.48;108276;1254;59733;-72
2023/07/27 00:41:48;;;;;;;12.50;9.20;;;;;;;28.56;50.51;98713.67;108222;1254;59243;-71
2023/07/27 00:44:15;;;;;;;17.50;9.80;;;;;;;28.64;50.48;98707.34;108340;1254;59665;-70
2023/07/27 00:46:42;;;;;;;19.40;10.30;;;;;;;28.76;50.20;98705.39;108123;1254;59103;-69
2023/07/27 00:49:08;;;;;;;19.70;11.60;;;;;;;28.64;50.32;98705.98;108361;1254;59262;-68
2023/07/27 00:51:37;;;;;;;16.30;9.80;;;;;;;28.91;49.91;98706.48;108335;1252;61656;-70
2023/07/27 00:54:06;;;;;;;16.80;10.00;;;;;;;29.03;49.56;98704.96;108265;1253;60088;-69
2023/07/27 00:56:33;;;;;;;12.50;9.10;;;;;;;28.97;49.71;98701.51;108069;1254;73163;-70
2023/07/27 00:59:00;;;;;;;19.90;9.30;;;;;;;29.02;49.78;98701.09;107999;1254;70582;-69
2023/07/27 01:01:28;;;;;;;16.30;10.00;;;;;;;29.12;49.52;98703.42;107997;1254;72647;-68
2023/07/27 01:03:55;;;;;;;15.80;11.80;;;;;;;28.74;50.25;98715.48;108075;1255;61803;-69
2023/07/27 01:06:21;;;;;;;17.90;9.90;;;;;;;28.89;50.27;98717.60;108263;1253;59256;-68
2023/07/27 01:08:48;;;;;;;12.20;9.20;;;;;;;29.00;50.06;98714.17;108258;1254;72797;-70
2023/07/27 01:11:34;;;;;;;16.00;11.20;;;;;;;28.91;50.32;98714.23;108232;1254;70597;-70
2023/07/27 01:14:33;;;;;;;28.00;18.00;;;;;;;29.01;50.43;98714.90;108093;1253;72501;-70
2023/07/27 01:17:37;;;;;;;22.40;16.20;;;;;;;28.92;51.10;98703.42;107716;1254;60598;-69
2023/07/27 01:20:07;;;;;;;31.50;19.50;;;;;;;28.84;51.31;98685.92;108097;1254;59532;-71
2023/07/27 01:23:07;;;;;;;31.40;19.30;;;;;;;28.90;51.41;98663.79;108319;1254;71884;-72
2023/07/27 01:26:05;;;;;;;18.10;13.30;;;;;;;29.01;51.05;98634.42;108070;1254;68679;-69
2023/07/27 01:29:09;;;;;;;20.10;12.10;;;;;;;28.99;51.11;98623.17;108083;1254;71976;-70
2023/07/27 01:31:42;;;;;;;22.90;15.00;;;;;;;28.32;52.46;98642.20;108208;1253;61652;-70
2023/07/27 01:34:26;;;;;;;25.10;15.70;;;;;;;28.14;52.92;98656.55;108221;1254;60393;-68
2023/07/27 01:36:55;;;;;;;21.30;14.50;;;;;;;28.34;52.26;98672.78;108171;1253;71491;-69
2023/07/27 01:39:22;;;;;;;22.20;14.90;;;;;;;28.63;51.75;98682.95;108197;1254;68961;-70
2023/07/27 01:41:48;;;;;;;24.90;15.60;;;;;;;28.74;51.52;98689.90;108235;1254;60386;-70
2023/07/27 01:44:14;;;;;;;20.10;14.10;;;;;;;28.83;51.26;98694.93;107957;1254;60454;-65
2023/07/27 01:46:41;;;;;;;22.20;15.80;;;;;;;28.86;51.04;98688.77;108056;1254;60324;-68
2023/07/27 01:49:09;;;;;;;20.80;13.30;;;;;;;28.85;51.24;98678.89;107988;1253;60489;-67
2023/07/27 01:51:39;;;;;;;21.70;15.90;;;;;;;28.93;50.97;98671.70;107905;1254;69009;-67
2023/07/27 01:54:06;;;;;;;33.10;17.50;;;;;;;28.94;51.33;98660.86;108002;1257;73786;-69
2023/07/27 01:56:33;;;;;;;27.50;18.10;;;;;;;28.88;51.40;98650.91;108093;1253;62477;-70
2023/07/27 01:59:00;;;;;;;35.70;20.20;;;;;;;28.82;51.61;98639.55;108059;1254;62251;-70
2023/07/27 02:01:27;;;;;;;33.10;20.70;;;;;;;28.78;51.75;98625.23;108106;1254;73914;-69
2023/07/27 02:03:54;;;;;;;28.40;17.90;;;;;;;28.76;51.86;98616.54;107961;1254;69327;-69
2023/07/27 02:06:20;;;;;;;38.50;22.00;;;;;;;28.93;51.53;98608.27;108120;1254;60210;-68
2023/07/27 02:08:47;;;;;;;34.50;21.70;;;;;;;28.95;51.37;98605.63;108248;1253;60409;-68
2023/07/27 02:11:15;;;;;;;44.90;23.50;;;;;;;29.08;50.99;98598.31;108079;1253;60325;-70
2023/07/27 02:13:51;;;;;;;39.30;21.20;;;;;;;29.07;51.00;98600.98;107968;1254;73752;-69
2023/07/27 02:16:42;;;;;;;27.70;16.60;;;;;;;28.99;50.87;98602.70;108031;1254;70108;-69
2023/07/27 02:19:12;;;;;;;;;;;;;;;28.80;51.31;98617.00;108142;1254;71689;-69
2023/07/27 02:21:39;;;;;;;38.70;21.60;;;;;;;28.70;51.48;98625.02;108235;1253;62200;-69
2023/07/27 02:24:05;;;;;;;41.10;22.10;;;;;;;28.73;51.49;98615.88;108147;1254;59635;-71
2023/07/27 02:26:32;;;;;;;49.80;23.20;;;;;;;28.81;51.73;98609.54;107999;1253;60431;-69
2023/07/27 02:28:59;;;;;;;38.00;20.90;;;;;;;28.40;52.60;98622.71;108041;1254;69990;-69
2023/07/27 02:31:26;;;;;;;58.40;27.10;;;;;;;28.37;52.99;98643.13;108201;1253;72581;-70
2023/07/27 02:33:52;;;;;;;70.80;31.30;;;;;;;28.73;52.21;98629.10;108166;1257;60326;-70
2023/07/27 02:36:19;;;;;;;73.10;34.20;;;;;;;28.74;52.51;98601.84;108070;1252;60217;-70
2023/07/27 02:38:46;;;;;;;78.50;34.30;;;;;;;28.75;52.68;98583.00;108232;1253;73638;-69
2023/07/27 02:41:13;;;;;;;72.20;32.10;;;;;;;28.58;53.41;98554.91;108219;1254;69225;-70
2023/07/27 02:43:40;;;;;;;72.50;31.60;;;;;;;28.61;53.65;98525.66;108213;1254;70579;-71
2023/07/27 02:46:08;;;;;;;71.40;30.60;;;;;;;28.42;54.27;98517.92;108267;1253;60834;-72
2023/07/27 02:48:35;;;;;;;44.40;22.80;;;;;;;28.50;54.34;98539.21;108299;1255;60342;-69
2023/07/27 02:51:02;;;;;;;52.50;27.00;;;;;;;28.56;54.32;98587.52;108065;1251;72816;-70
2023/07/27 02:53:28;;;;;;;58.10;29.40;;;;;;;28.68;54.35;98631.48;108253;1254;70281;-70
2023/07/27 02:55:56;;;;;;;44.30;24.60;;;;;;;28.71;54.45;98622.69;108116;1254;73389;-71
2023/07/27 02:58:23;;;;;;;57.00;28.90;;;;;;;28.43;55.05;98623.34;108084;1253;62178;-68
2023/07/27 03:00:52;;;;;;;50.80;25.00;;;;;;;28.67;54.90;98640.38;108203;1252;60722;-68
2023/07/27 03:03:19;;;;;;;65.70;31.40;;;;;;;28.97;54.19;98654.82;108111;1254;74090;-71
2023/07/27 03:05:46;;;;;;;73.30;32.90;;;;;;;28.97;54.28;98678.54;108336;1254;70439;-70
2023/07/27 03:08:15;;;;;;;72.80;33.10;;;;;;;28.97;54.48;98679.02;108084;1254;73098;-68
2023/07/27 03:10:42;;;;;;;67.40;32.30;;;;;;;28.94;54.49;98665.73;108252;1253;60592;-70
2023/07/27 03:13:09;;;;;;;61.50;28.90;;;;;;;28.73;55.23;98662.91;108089;1253;60377;-68
2023/07/27 03:15:39;;;;;;;68.20;31.00;;;;;;;29.34;53.49;98681.73;108077;1259;60421;-68
2023/07/27 03:18:05;;;;;;;78.50;35.30;;;;;;;29.26;53.89;98716.70;108257;1254;68953;-71
2023/07/27 03:20:39;;;;;;;76.20;33.30;;;;;;;29.06;54.49;98716.56;108099;1253;72695;-70
2023/07/27 03:23:07;;;;;;;97.50;38.80;;;;;;;29.06;54.55;98700.84;108343;1255;62581;-71
2023/07/27 03:25:34;;;;;;;75.50;35.70;;;;;;;29.03;54.73;98720.84;108055;1257;60306;-71
2023/07/27 03:28:07;;;;;;;85.00;37.40;;;;;;;28.98;54.94;98742.57;108281;1254;72417;-72
2023/07/27 03:30:35;;;;;;;90.20;37.60;;;;;;;28.82;55.20;98753.41;108072;1254;70198;-69
2023/07/27 03:33:03;;;;;;;88.00;33.40;;;;;;;28.83;54.48;98753.82;108065;1254;72684;-71
2023/07/27 03:35:31;;;;;;;91.80;35.00;;;;;;;28.75;54.35;98751.52;108218;1254;61669;-69
2023/07/27 03:37:57;;;;;;;94.30;34.80;;;;;;;28.77;54.06;98754.29;108282;1254;59240;-70
2023/07/27 03:40:24;;;;;;;95.10;33.90;;;;;;;28.91;53.88;98764.09;108065;1254;60442;-70
2023/07/27 03:42:50;;;;;;;99.10;33.70;;;;;;;28.85;53.97;98774.35;108050;1254;60137;-69
2023/07/27 03:45:17;;;;;;;102.00;30.80;;;;;;;28.96;53.92;98773.92;108012;1253;60342;-71
2023/07/27 03:47:44;;;;;;;86.00;29.60;;;;;;;29.01;53.37;98764.66;108149;1253;60844;-71
2023/07/27 03:50:13;;;;;;;100.80;32.30;;;;;;;28.87;53.80;98752.20;108043;1254;60341;-70
2023/07/27 03:52:39;;;;;;;77.10;26.90;;;;;;;28.87;54.16;98721.77;108083;1254;73689;-70
2023/07/27 03:55:12;;;;;;;70.70;25.20;;;;;;;28.72;54.20;98658.80;108027;1257;70350;-71
2023/07/27 03:57:38;;;;;;;70.80;27.20;;;;;;;28.99;53.63;98566.05;107972;1254;71148;-70
2023/07/27 04:00:06;;;;;;;79.10;27.30;;;;;;;29.03;53.72;98539.20;107959;1254;62018;-71
2023/07/27 04:02:40;;;;;;;73.90;27.60;;;;;;;28.64;54.68;98635.22;108102;1256;59434;-70
2023/07/27 04:05:06;;;;;;;79.40;27.90;;;;;;;28.71;54.46;98691.16;108121;1253;73960;-69
2023/07/27 04:07:33;;;;;;;80.10;27.60;;;;;;;28.79;53.63;98694.69;108195;1253;70012;-71
2023/07/27 04:10:00;;;;;;;87.70;29.40;;;;;;;28.82;53.64;98698.98;108245;1254;72734;-71
2023/07/27 04:12:26;;;;;;;64.70;24.40;;;;;;;28.89;53.44;98701.02;108125;1253;60338;-71
2023/07/27 04:14:53;;;;;;;74.10;25.80;;;;;;;28.63;54.05;98706.60;108078;1253;60724;-69
2023/07/27 04:17:19;;;;;;;60.50;23.80;;;;;;;28.49;54.45;98704.23;108134;1253;60513;-69
2023/07/27 04:19:46;;;;;;;78.50;25.00;;;;;;;28.67;54.10;98698.65;108166;1253;70937;-70
2023/07/27 04:22:13;;;;;;;65.20;25.00;;;;;;;28.80;53.69;98724.52;108302;1256;72510;-71
2023/07/27 04:24:44;;;;;;;70.40;24.90;;;;;;;28.14;55.29;98733.58;108145;1253;62362;-71
2023/07/27 04:27:11;;;;;;;65.60;23.50;;;;;;;28.21;55.47;98740.09;108208;1253;60283;-71
2023/07/27 04:29:38;;;;;;;51.90;20.00;;;;;;;28.53;54.60;98752.08;108192;1253;73850;-71
2023/07/27 04:32:05;;;;;;;69.60;24.80;;;;;;;28.15;55.41;98749.36;108233;1254;70182;-70
2023/07/27 04:34:32;;;;;;;73.10;24.50;;;;;;;28.26;54.97;98743.19;108265;1253;72539;-69
2023/07/27 04:36:58;;;;;;;59.20;21.30;;;;;;;27.99;55.93;98726.61;108253;1255;61097;-70
2023/07/27 04:39:24;;;;;;;66.50;25.30;;;;;;;28.33;55.06;98717.67;108203;1254;60385;-71
2023/07/27 04:41:51;;;;;;;67.70;25.00;;;;;;;28.46;54.86;98730.29;108044;1253;60458;-68
2023/07/27 04:44:18;;;;;;;88.80;26.90;;;;;;;28.45;55.05;98732.15;108243;1254;59282;-69
2023/07/27 04:46:44;;;;;;;87.60;29.40;;;;;;;28.78;54.53;98714.02;108086;1254;73612;-70
2023/07/27 04:49:11;;;;;;;97.70;30.50;;;;;;;28.68;54.59;98710.90;108294;1252;60433;-71
2023/07/27 04:51:37;;;;;;;75.00;26.90;;;;;;;28.74;54.69;98720.40;108115;1253;60468;-70
2023/07/27 04:54:04;;;;;;;85.00;29.10;;;;;;;28.86;54.39;98731.70;108132;1254;73642;-68
2023/07/27 04:56:30;;;;;;;84.70;28.80;;;;;;;28.93;54.08;98739.80;108250;1254;70229;-71
2023/07/27 04:58:58;;;;;;;81.70;28.30;;;;;;;28.87;54.18;98746.46;108269;1253;73191;-71
2023/07/27 05:01:24;;;;;;;81.90;28.40;;;;;;;28.99;53.93;98739.48;108278;1254;62045;-71
2023/07/27 05:03:51;;;;;;;82.60;28.50;;;;;;;29.10;53.74;98737.38;108267;1254;61214;-70
2023/07/27 05:06:18;;;;;;;90.10;29.70;;;;;;;29.11;53.85;98754.05;108350;1254;74676;-70
2023/07/27 05:08:44;;;;;;;76.10;27.10;;;;;;;28.92;54.24;98762.00;108272;1253;70907;-69
2023/07/27 05:11:11;;;;;;;70.50;27.40;;;;;;;28.85;54.19;98731.33;108181;1253;60286;-69
2023/07/27 05:13:38;;;;;;;65.80;25.30;;;;;;;28.77;54.63;98697.93;108202;1253;62057;-71
2023/07/27 05:16:04;;;;;;;62.50;24.70;;;;;;;28.77;54.73;98682.52;108271;1254;60403;-71
2023/07/27 05:18:31;;;;;;;67.20;24.30;;;;;;;28.74;54.98;98659.47;108227;1252;73744;-70
2023/07/27 05:20:58;;;;;;;64.60;24.90;;;;;;;28.78;55.04;98643.00;108112;1252;70577;-70
2023/07/27 05:23:24;;;;;;;52.90;22.60;;;;;;;28.67;55.94;98641.54;108229;1254;71211;-70
2023/07/27 05:25:51;;;;;;;56.30;23.60;;;;;;;29.10;55.00;98643.45;108192;1253;60318;-70
2023/07/27 05:28:18;;;;;;;49.60;23.20;;;;;;;28.74;55.58;98652.17;108171;1253;60402;-69
2023/07/27 05:30:44;;;;;;;54.80;24.20;;;;;;;28.51;56.37;98654.04;108176;1256;72779;-70
2023/07/27 05:33:11;;;;;;;52.70;23.50;;;;;;;28.93;55.28;98654.45;108236;1256;70947;-71
2023/07/27 05:35:37;;;;;;;39.30;19.80;;;;;;;29.15;54.65;98645.59;108150;1253;60313;-71
2023/07/27 05:38:04;;;;;;;47.40;22.00;;;;;;;29.30;54.06;98635.86;108198;1254;60520;-71
2023/07/27 05:40:30;;;;;;;39.30;20.50;;;;;;;29.31;53.99;98616.80;108243;1254;60623;-69
2023/07/27 05:42:59;;;;;;;47.40;22.70;;;;;;;29.23;54.34;98607.16;108235;1254;74359;-71
2023/07/27 05:45:26;;;;;;;51.90;23.20;;;;;;;29.30;54.38;98604.79;108220;1253;70468;-71
2023/07/27 05:47:52;;;;;;;41.90;21.10;;;;;;;29.40;54.02;98606.79;108237;1253;60326;-71
2023/07/27 05:50:19;;;;;;;49.40;22.80;;;;;;;29.48;54.27;98606.45;108179;1253;61744;-69
2023/07/27 05:52:45;;;;;;;52.60;24.40;;;;;;;29.44;54.18;98600.85;108201;1253;60441;-71
2023/07/27 05:55:12;;;;;;;47.30;23.50;;;;;;;29.33;54.44;98609.33;108209;1253;73628;-71
2023/07/27 05:57:41;;;;;;;46.10;23.30;;;;;;;29.53;54.14;98607.55;108169;1254;69505;-72
2023/07/27 06:00:08;;;;;;;41.00;21.20;;;;;;;29.58;53.75;98596.52;108231;1256;72315;-71
2023/07/27 06:02:35;;;;;;;47.80;23.90;;;;;;;29.70;53.55;98594.85;108145;1253;61946;-71
2023/07/27 06:05:02;;;;;;;43.00;21.20;;;;;;;29.78;53.45;98596.11;108141;1254;60324;-70
2023/07/27 06:07:30;;;;;;;42.30;22.90;;;;;;;29.73;53.48;98591.92;108040;1254;73864;-71
2023/07/27 06:09:56;;;;;;;44.90;21.60;;;;;;;29.75;53.23;98590.91;108208;1254;70696;-71
2023/07/27 06:12:23;;;;;;;41.40;22.40;;;;;;;29.73;53.07;98596.09;108254;1254;59135;-72
2023/07/27 06:14:51;;;;;;;34.90;20.10;;;;;;;29.63;53.41;98594.74;108222;1253;61003;-73
2023/07/27 06:17:17;;;;;;;32.30;17.70;;;;;;;29.47;54.00;98597.49;108129;1256;60379;-69
2023/07/27 06:19:44;;;;;;;28.40;18.20;;;;;;;29.64;53.98;98600.75;108225;1253;72515;-72
2023/07/27 06:22:10;;;;;;;27.10;17.30;;;;;;;29.67;54.33;98594.23;108232;1254;59542;-71
2023/07/27 06:24:37;;;;;;;31.20;17.60;;;;;;;30.05;53.92;98589.86;108202;1253;60434;-70
2023/07/27 06:27:04;;;;;;;31.30;18.40;;;;;;;30.34;53.08;98591.41;108215;1254;60395;-71
2023/07/27 06:29:31;;;;;;;28.40;17.70;;;;;;;30.55;52.91;98595.31;108218;1255;60318;-71
2023/07/27 06:31:57;;;;;;;27.20;16.90;;;;;;;30.81;52.56;98594.69;108211;1253;73798;-72
2023/07/27 06:34:25;;;;;;;28.10;17.80;;;;;;;30.87;52.27;98596.03;108269;1254;69379;-70
2023/07/27 06:36:51;;;;;;;25.60;16.20;;;;;;;30.98;51.88;98603.56;108260;1253;73993;-71
2023/07/27 06:39:18;;;;;;;23.40;15.70;;;;;;;31.24;50.98;98612.86;108221;1253;62221;-71
2023/07/27 06:41:44;;;;;;;23.70;15.00;;;;;;;31.40;51.06;98613.77;108216;1254;60398;-71
2023/07/27 06:44:12;;;;;;;21.90;13.70;;;;;;;31.51;50.55;98622.08;108258;1253;74170;-70
2023/07/27 06:46:39;;;;;;;21.40;13.70;;;;;;;31.66;49.95;98626.20;108216;1253;70190;-70
2023/07/27 06:49:06;;;;;;;19.70;12.80;;;;;;;31.53;50.09;98628.48;108030;1254;71748;-73
2023/07/27 06:51:33;;;;;;;23.00;14.40;;;;;;;31.03;51.46;98630.86;108198;1253;61789;-70
2023/07/27 06:53:59;;;;;;;19.00;12.70;;;;;;;31.14;51.46;98637.43;108234;1253;59266;-71
2023/07/27 06:56:25;;;;;;;17.50;12.30;;;;;;;31.78;49.62;98641.77;108274;1254;60533;-71
2023/07/27 06:58:53;;;;;;;21.30;14.70;;;;;;;31.67;49.44;98643.89;108225;1254;68903;-71
2023/07/27 07:01:19;;;;;;;18.10;14.40;;;;;;;31.85;48.99;98651.38;108169;1253;60786;-71
2023/07/27 07:03:46;;;;;;;20.30;15.40;;;;;;;31.37;49.38;98646.91;108223;1252;60353;-70
2023/07/27 07:06:12;;;;;;;23.90;17.20;;;;;;;31.13;50.14;98643.80;108254;1253;60312;-70
2023/07/27 07:08:39;;;;;;;24.30;17.40;;;;;;;31.68;49.73;98644.85;108242;1254;60434;-71
2023/07/27 07:11:06;;;;;;;26.00;19.20;;;;;;;31.91;48.54;98641.80;108212;1254;70342;-70
2023/07/27 07:13:32;;;;;;;24.30;17.20;;;;;;;31.81;49.03;98644.30;108161;1256;73003;-69
2023/07/27 07:15:59;;;;;;;23.60;17.60;;;;;;;31.85;49.61;98649.42;108025;1251;61827;-68
2023/07/27 07:18:26;;;;;;;24.30;18.20;;;;;;;31.86;49.12;98653.76;108019;1252;60424;-71
2023/07/27 07:20:52;;;;;;;25.20;19.40;;;;;;;31.87;49.33;98654.21;108187;1254;60279;-71
2023/07/27 07:23:19;;;;;;;26.50;18.90;;;;;;;31.92;49.09;98658.81;108064;1253;70131;-69
2023/07/27 07:25:45;;;;;;;28.70;20.70;;;;;;;31.98;48.74;98656.52;108222;1253;73488;-72
2023/07/27 07:28:12;;;;;;;28.20;20.40;;;;;;;31.75;48.80;98653.02;108210;1253;61775;-71
2023/07/27 07:30:41;;;;;;;27.30;19.30;;;;;;;31.66;48.71;98659.40;108224;1253;60351;-71
2023/07/27 07:33:08;;;;;;;25.80;18.40;;;;;;;31.43;49.17;98664.73;107941;1254;73875;-71
2023/07/27 07:35:38;;;;;;;30.40;20.00;;;;;;;31.35;49.58;98671.05;108158;1254;60203;-71
2023/07/27 07:38:06;;;;;;;23.70;18.00;;;;;;;31.15;49.64;98678.71;108209;1254;72955;-72
2023/07/27 07:40:32;;;;;;;29.50;21.10;;;;;;;30.84;50.51;98683.60;108130;1253;61781;-72
2023/07/27 07:42:59;;;;;;;29.90;22.00;;;;;;;30.58;51.07;98681.09;108188;1253;60373;-71
2023/07/27 07:45:25;;;;;;;30.70;22.10;;;;;;;30.58;51.58;98675.01;108230;1254;60364;-70
2023/07/27 07:47:52;;;;;;;29.00;21.40;;;;;;;30.67;51.61;98666.90;108182;1253;70358;-70
2023/07/27 07:50:19;;;;;;;27.50;20.40;;;;;;;30.82;51.21;98660.40;108222;1253;72505;-71
2023/07/27 07:52:45;;;;;;;24.90;17.80;;;;;;;30.71;51.06;98661.79;108195;1253;60335;-71
2023/07/27 07:55:14;;;;;;;28.50;20.40;;;;;;;30.81;50.96;98664.77;108256;1253;60367;-71
2023/07/27 07:57:41;;;;;;;32.90;23.30;;;;;;;30.94;50.84;98664.16;108235;1253;60411;-71
2023/07/27 08:00:08;;;;;;;29.20;22.00;;;;;;;31.03;50.85;98667.50;108037;1258;70914;-72
2023/07/27 08:02:41;;;;;;;31.60;23.00;;;;;;;31.20;50.32;98667.73;108155;1253;72674;-71
2023/07/27 08:05:07;;;;;;;35.00;24.00;;;;;;;31.19;50.47;98671.71;108139;1253;62047;-71
2023/07/27 08:07:35;;;;;;;36.50;25.10;;;;;;;31.05;50.77;98676.58;108193;1256;60373;-70
2023/07/27 08:10:02;;;;;;;35.50;25.60;;;;;;;31.06;50.48;98679.43;108177;1254;73878;-71
2023/07/27 08:12:29;;;;;;;40.80;29.70;;;;;;;30.96;51.09;98679.88;108133;1254;69648;-71
2023/07/27 08:14:55;;;;;;;49.20;34.40;;;;;;;31.01;51.17;98683.29;108120;1253;59589;-72
2023/07/27 08:17:22;;;;;;;46.30;32.30;;;;;;;30.99;51.46;98675.36;108203;1256;61810;-70
2023/07/27 08:19:49;;;;;;;47.10;33.60;;;;;;;30.95;51.80;98668.05;108261;1254;60325;-71
2023/07/27 08:22:16;;;;;;;44.10;31.20;;;;;;;31.07;51.45;98667.11;108131;1256;73754;-70
2023/07/27 08:24:43;;;;;;;32.10;21.10;;;;;;;31.02;52.08;98668.59;108122;1253;70066;-71
2023/07/27 08:27:10;;;;;;;32.80;24.70;;;;;;;31.02;51.27;98677.05;108206;1253;72469;-71
2023/07/27 08:29:37;;;;;;;34.60;25.90;;;;;;;30.93;51.60;98682.40;108061;1253;61991;-72
2023/07/27 08:32:03;;;;;;;26.10;21.40;;;;;;;31.23;51.42;98682.47;108240;1256;59667;-70
2023/07/27 08:34:30;;;;;;;27.20;20.40;;;;;;;31.42;51.09;98683.61;108281;1253;73909;-71
2023/07/27 08:36:57;;;;;;;28.80;23.10;;;;;;;31.52;50.66;98681.45;108265;1254;70628;-70
2023/07/27 08:39:23;;;;;;;26.00;21.40;;;;;;;31.70;50.17;98682.48;108322;1252;72522;-71
2023/07/27 08:41:50;;;;;;;26.10;19.50;;;;;;;31.68;49.58;98685.45;108220;1252;60508;-73
2023/07/27 08:44:17;;;;;;;24.50;20.70;;;;;;;31.52;50.03;98683.34;108125;1254;60319;-70
2023/07/27 08:46:44;;;;;;;23.00;19.20;;;;;;;31.69;50.16;98687.02;108267;1253;73676;-72
2023/07/27 08:49:14;;;;;;;29.00;21.40;;;;;;;31.95;49.87;98692.27;108177;1254;70112;-70
2023/07/27 08:51:43;;;;;;;23.70;19.40;;;;;;;32.01;49.31;98694.58;108193;1253;73280;-71
2023/07/27 08:54:10;;;;;;;20.90;17.80;;;;;;;32.15;48.66;98693.80;108220;1252;61759;-69
2023/07/27 08:56:37;;;;;;;17.20;14.60;;;;;;;32.30;48.76;98694.95;108258;1253;60376;-71
2023/07/27 08:59:04;;;;;;;18.40;15.50;;;;;;;32.38;47.75;98700.45;108255;1253;74083;-70
2023/07/27 09:01:31;;;;;;;13.90;12.40;;;;;;;32.51;47.69;98695.63;108086;1252;70335;-71
2023/07/27 09:03:57;;;;;;;14.80;13.20;;;;;;;32.39;47.85;98693.73;108007;1256;72800;-72
2023/07/27 09:06:37;;;;;;;14.70;12.20;;;;;;;32.70;47.03;98688.59;108190;1254;61816;-73
2023/07/27 09:09:25;;;;;;;16.20;12.70;;;;;;;33.17;45.97;98692.63;108228;1256;60322;-71
2023/07/27 09:11:52;;;;;;;14.40;11.70;;;;;;;33.22;45.61;98697.01;108270;1254;65066;-71
2023/07/27 09:14:19;;;;;;;14.70;11.80;;;;;;;33.24;45.13;98698.12;108226;1253;61369;-70
2023/07/27 09:16:46;;;;;;;14.70;12.70;;;;;;;33.31;45.13;98695.84;108095;1252;63769;-70
2023/07/27 09:19:17;;;;;;;15.60;13.70;;;;;;;33.21;45.50;98697.92;108349;1251;60454;-71
2023/07/27 09:21:46;;;;;;;18.20;14.10;;;;;;;33.42;45.47;98686.48;108131;1254;60182;-70
2023/07/27 09:24:13;;;;;;;15.40;12.90;;;;;;;33.88;45.20;98674.85;108223;1254;66566;-71
2023/07/27 09:26:45;;;;;;;17.70;13.70;;;;;;;34.33;44.38;98670.35;108265;1253;60292;-71
2023/07/27 09:29:16;;;;;;;14.70;11.40;;;;;;;34.19;43.61;98677.04;108189;1252;62754;-70
2023/07/27 09:31:52;;;;;;;15.20;12.10;;;;;;;34.11;43.16;98673.95;108175;1254;60303;-72
2023/07/27 09:34:20;;;;;;;13.20;11.50;;;;;;;34.57;41.80;98672.47;108163;1254;59263;-70
2023/07/27 09:36:47;;;;;;;11.10;9.20;;;;;;;34.77;41.19;98674.50;108131;1253;65726;-72
2023/07/27 09:39:15;;;;;;;11.50;8.90;;;;;;;34.63;40.69;98670.98;108168;1254;60216;-70
2023/07/27 09:41:45;;;;;;;13.40;10.10;;;;;;;34.65;40.90;98672.98;108189;1256;63838;-70
2023/07/27 09:44:15;;;;;;;10.40;8.00;;;;;;;34.93;41.73;98679.59;108234;1253;60318;-70
2023/07/27 09:46:44;;;;;;;10.40;7.20;;;;;;;34.90;40.23;98685.77;107902;1252;338786;-70
2023/07/27 09:49:52;;;;;;;6.90;6.30;;;;;;;31.19;47.53;98693.34;104919;1289;602275;-71
2023/07/27 09:52:20;;;;;;;8.00;6.60;;;;;;;32.18;45.59;98690.84;107259;1263;61656;-72
2023/07/27 09:54:48;;;;;;;9.10;6.10;;;;;;;32.45;45.30;98695.36;107260;1263;59274;-71
2023/07/27 09:57:15;;;;;;;9.60;6.80;;;;;;;32.43;44.97;98695.86;107236;1263;72236;-72
2023/07/27 09:59:43;;;;;;;9.90;6.10;;;;;;;32.28;45.36;98692.89;107289;1263;70002;-69
2023/07/27 10:02:10;;;;;;;8.20;5.60;;;;;;;32.14;45.75;98692.05;107209;1263;72658;-71
2023/07/27 10:04:38;;;;;;;12.70;6.20;;;;;;;32.20;45.59;98691.16;107169;1263;279152;-72
2023/07/27 10:07:05;;;;;;;6.90;5.70;;;;;;;32.46;45.58;98695.69;107398;1263;59327;-70
2023/07/27 10:09:32;;;;;;;5.50;4.30;;;;;;;32.87;43.82;98682.33;107371;1262;72224;-70
2023/07/27 10:12:00;;;;;;;7.70;4.50;;;;;;;33.12;42.77;98669.52;107363;1262;70132;-72
2023/07/27 10:14:27;;;;;;;7.40;4.40;;;;;;;33.29;42.62;98667.92;107343;1263;71008;-71
2023/07/27 10:16:59;;;;;;;6.80;4.50;;;;;;;33.23;42.59;98678.48;107648;1254;59977;-71
2023/07/27 10:19:42;;;;;;;8.80;4.70;;;;;;;33.28;43.01;98691.02;107918;1259;59138;-70
2023/07/27 10:22:14;;;;;;;7.40;3.90;;;;;;;33.73;42.58;98695.70;107831;1255;62846;-71
2023/07/27 10:24:46;;;;;;;6.70;4.20;;;;;;;33.56;41.91;98700.19;107622;1256;61500;-70
2023/07/27 10:27:13;;;;;;;6.00;3.40;;;;;;;33.50;41.69;98701.86;107731;1256;72096;-68
2023/07/27 10:29:45;;;;;;;5.70;3.40;;;;;;;33.25;41.94;98703.09;107578;1256;59721;-71
2023/07/27 10:32:14;;;;;;;5.60;3.80;;;;;;;33.12;42.79;98695.10;107570;1256;59575;-70
2023/07/27 10:34:42;;;;;;;6.40;2.90;;;;;;;33.12;42.54;98692.42;107739;1256;71860;-70
2023/07/27 10:37:11;;;;;;;5.70;3.00;;;;;;;33.19;41.91;98689.89;107777;1260;60564;-70
2023/07/27 10:39:44;;;;;;;3.10;2.60;;;;;;;33.09;42.47;98688.89;107840;1257;64201;-71
2023/07/27 10:42:19;;;;;;;5.70;2.50;;;;;;;33.78;41.11;98684.16;108176;1253;59597;-69
2023/07/27 10:44:54;;;;;;;4.60;3.60;;;;;;;33.75;40.99;98683.41;107977;1258;59763;-70
2023/07/27 10:47:38;;;;;;;4.60;3.20;;;;;;;33.88;41.27;98686.61;108133;1253;64391;-70
2023/07/27 10:50:06;;;;;;;6.20;3.30;;;;;;;34.17;41.53;98687.61;107991;1253;60391;-70
2023/07/27 10:52:34;;;;;;;4.60;3.50;;;;;;;34.13;41.70;98693.59;107891;1253;63990;-69
2023/07/27 10:55:03;;;;;;;5.00;3.20;;;;;;;34.45;41.22;98690.96;107908;1256;59640;-67
2023/07/27 10:57:32;;;;;;;5.80;3.50;;;;;;;34.48;41.05;98685.48;107861;1253;59496;-71
2023/07/27 10:59:59;;;;;;;6.80;4.60;;;;;;;34.67;40.24;98684.94;107942;1253;64093;-71
2023/07/27 11:02:32;;;;;;;5.10;4.10;;;;;;;34.92;38.97;98682.10;107987;1253;61371;-69
2023/07/27 11:05:05;;;;;;;6.50;5.30;;;;;;;35.15;38.57;98686.67;107984;1256;64129;-70
2023/07/27 11:07:37;;;;;;;5.70;4.90;;;;;;;35.07;38.50;98689.56;107937;1253;59170;-70
2023/07/27 11:10:15;;;;;;;7.00;5.00;;;;;;;34.99;38.85;98693.46;108103;1253;59128;-72
2023/07/27 11:12:46;;;;;;;7.40;5.40;;;;;;;34.98;38.76;98693.13;107985;1252;64162;-70
2023/07/27 11:15:18;;;;;;;6.80;5.50;;;;;;;35.00;39.11;98696.50;107904;1253;60495;-71
2023/07/27 11:17:46;;;;;;;7.60;5.80;;;;;;;35.26;38.81;98704.54;107961;1254;62428;-71